Time;durP1;ratioP1;P1;durP2;ratioP2;P2;SDS_P1;SDS_P2;PMS_P1;PMS_P2;Temp;Humidity;BMP_temperature;BMP_pressure;BME280_temperature;BME280_humidity;BME280_pressure;Samples;Min_cycle;Max_cycle;Signal;HPM_P1;HPM_P2
2024/01/10 00:01:36;;;;;;;8.02;4.43;;;;;;;-2.60;54.46;102969.50;5018299;28;20065;-89
2024/01/10 00:04:01;;;;;;;8.27;4.50;;;;;;;-2.48;54.63;102999.91;5036236;28;20048;-89
2024/01/10 00:06:27;;;;;;;8.73;4.80;;;;;;;-2.57;54.59;102992.16;5034707;28;20112;-89
2024/01/10 00:08:52;;;;;;;9.55;5.18;;;;;;;-2.59;54.22;102983.34;5018196;28;20132;-89
2024/01/10 00:11:18;;;;;;;10.27;5.75;;;;;;;-2.70;54.46;102969.34;5035779;28;20429;-89
2024/01/10 00:13:43;;;;;;;9.05;5.45;;;;;;;-2.55;54.17;102990.63;5036150;28;20112;-88
2024/01/10 00:16:13;;;;;;;8.82;4.80;;;;;;;-2.66;54.86;102973.13;5019015;28;20125;-90
2024/01/10 00:18:40;;;;;;;9.45;5.22;;;;;;;-2.48;54.73;103000.84;5035023;28;20116;-90
2024/01/10 00:21:05;;;;;;;8.23;4.57;;;;;;;-2.43;53.94;102996.09;5036343;28;20029;-90
2024/01/10 00:23:31;;;;;;;10.98;4.50;;;;;;;-2.53;54.65;102982.28;5021291;28;20029;-89
2024/01/10 00:25:56;;;;;;;8.07;4.30;;;;;;;-2.49;55.18;102986.03;5040200;28;20017;-89
2024/01/10 00:28:21;;;;;;;7.93;4.18;;;;;;;-2.56;54.75;102978.47;5041469;28;20058;-88
2024/01/10 00:30:50;;;;;;;7.78;4.03;;;;;;;-2.55;55.42;102969.94;5039747;28;20033;-89
2024/01/10 00:33:15;;;;;;;6.53;4.00;;;;;;;-2.62;55.38;102976.16;5035430;28;20091;-89
2024/01/10 00:35:41;;;;;;;8.30;4.00;;;;;;;-2.71;54.91;102964.94;5018289;28;20033;-89
2024/01/10 00:38:06;;;;;;;6.53;3.63;;;;;;;-2.67;55.19;102989.44;5018512;28;20037;-89
2024/01/10 00:40:32;;;;;;;8.05;3.78;;;;;;;-2.84;55.50;102956.72;5017641;28;20044;-89
2024/01/10 00:42:57;;;;;;;6.82;3.63;;;;;;;-2.92;55.09;102952.47;5017209;28;20037;-88
2024/01/10 00:45:22;;;;;;;8.77;3.75;;;;;;;-2.81;55.10;102983.81;5034695;28;20124;-88
2024/01/10 00:47:51;;;;;;;6.03;3.55;;;;;;;-2.96;56.82;102961.59;5018074;28;20428;-89
2024/01/10 00:50:17;;;;;;;9.02;4.00;;;;;;;-2.87;56.21;102966.75;5017551;28;20087;-88
2024/01/10 00:52:44;;;;;;;7.68;4.15;;;;;;;-2.72;56.16;102985.50;5034526;28;20458;-87
2024/01/10 00:55:09;;;;;;;7.07;3.63;;;;;;;-2.72;55.83;102980.31;5035130;28;20033;-88
2024/01/10 00:57:35;;;;;;;8.70;4.30;;;;;;;-2.68;56.29;102970.41;5033413;28;20060;-88
2024/01/10 01:00:00;;;;;;;8.75;4.20;;;;;;;-2.69;55.96;102970.28;5018048;28;20128;-88
2024/01/10 01:02:26;;;;;;;7.65;4.40;;;;;;;-2.74;55.74;102964.66;5016829;28;20470;-88
2024/01/10 01:04:51;;;;;;;8.68;4.53;;;;;;;-2.66;56.05;102976.63;5033271;28;20466;-88
2024/01/10 01:07:16;;;;;;;8.00;4.00;;;;;;;-2.55;56.62;102973.44;5017376;28;20030;-87
2024/01/10 01:09:42;;;;;;;7.25;4.10;;;;;;;-2.57;56.30;102953.31;5033416;28;20466;-88
2024/01/10 01:12:07;;;;;;;9.38;4.53;;;;;;;-2.43;56.22;102972.81;5000419;28;20071;-87
2024/01/10 01:14:34;;;;;;;7.88;4.22;;;;;;;-2.48;55.73;102964.59;5016971;28;20466;-88
2024/01/10 01:16:59;;;;;;;12.73;4.68;;;;;;;-2.47;56.51;102969.00;5016984;28;20038;-88
2024/01/10 01:19:25;;;;;;;7.75;4.57;;;;;;;-2.50;55.97;102957.44;5016597;28;20348;-88
2024/01/10 01:21:50;;;;;;;7.10;4.10;;;;;;;-2.56;55.91;102956.09;5033192;28;20035;-87
2024/01/10 01:24:16;;;;;;;8.25;4.40;;;;;;;-2.50;55.05;102978.16;5016495;28;20037;-87
2024/01/10 01:26:44;;;;;;;10.27;4.40;;;;;;;-2.59;55.67;102955.78;5016337;28;20060;-87
2024/01/10 01:29:10;;;;;;;7.10;4.00;;;;;;;-2.73;55.92;102939.69;5016865;28;20085;-87
2024/01/10 01:31:35;;;;;;;9.45;4.20;;;;;;;-2.61;56.51;102951.25;5016466;28;20118;-87
2024/01/10 01:34:00;;;;;;;8.65;4.35;;;;;;;-2.58;55.81;102969.63;5000396;28;20034;-87
2024/01/10 01:36:26;;;;;;;8.45;4.35;;;;;;;-2.67;56.56;102963.56;5017164;28;20033;-87
2024/01/10 01:38:51;;;;;;;7.80;4.10;;;;;;;-2.70;56.39;102969.34;5015085;28;20033;-87
2024/01/10 01:41:17;;;;;;;8.70;4.25;;;;;;;-2.95;56.73;102929.81;5034223;28;20041;-87
2024/01/10 01:43:43;;;;;;;8.07;3.80;;;;;;;-3.02;57.03;102925.72;5032888;28;20041;-87
2024/01/10 01:46:11;;;;;;;9.75;4.32;;;;;;;-3.01;57.23;102916.28;5016502;28;20075;-88
2024/01/10 01:48:37;;;;;;;8.13;4.28;;;;;;;-2.85;56.71;102950.66;5016343;28;20048;-88
2024/01/10 01:51:06;;;;;;;8.10;4.00;;;;;;;-2.74;57.33;102968.88;5017034;28;20033;-87
2024/01/10 01:53:34;;;;;;;8.07;4.00;;;;;;;-2.67;57.27;102967.06;5034004;28;20033;-86
2024/01/10 01:56:05;;;;;;;7.13;3.58;;;;;;;-2.70;57.15;102937.38;5033335;28;20025;-87
2024/01/10 01:58:31;;;;;;;6.63;3.85;;;;;;;-2.55;56.84;102965.66;5034149;28;20033;-88
2024/01/10 02:00:56;;;;;;;7.82;4.00;;;;;;;-2.50;56.68;102954.84;5032770;28;20120;-86
2024/01/10 02:03:22;;;;;;;7.35;3.80;;;;;;;-2.48;56.88;102959.44;5037280;28;20026;-87
2024/01/10 02:05:47;;;;;;;7.93;4.10;;;;;;;-2.59;56.04;102955.78;5039035;28;20037;-87
2024/01/10 02:08:13;;;;;;;10.63;4.22;;;;;;;-2.63;57.58;102956.25;5039187;28;20048;-87
2024/01/10 02:10:39;;;;;;;6.50;4.03;;;;;;;-2.87;57.54;102915.97;5018811;28;20501;-87
2024/01/10 02:13:06;;;;;;;6.65;4.05;;;;;;;-2.66;57.65;102955.94;5034239;28;20037;-87
2024/01/10 02:15:31;;;;;;;7.35;3.78;;;;;;;-2.78;56.93;102945.31;5034638;28;20033;-87
2024/01/10 02:17:57;;;;;;;8.32;4.40;;;;;;;-2.87;58.00;102926.31;5032682;28;20039;-87
2024/01/10 02:20:22;;;;;;;8.45;4.35;;;;;;;-2.89;57.41;102935.59;5015949;28;20044;-87
2024/01/10 02:22:50;;;;;;;6.93;4.00;;;;;;;-2.88;57.50;102924.47;5016228;28;20428;-87
2024/01/10 02:25:16;;;;;;;8.60;4.47;;;;;;;-2.99;57.13;102919.03;5032891;28;20056;-87
2024/01/10 02:27:41;;;;;;;8.88;4.30;;;;;;;-3.02;57.63;102928.28;5033240;28;20331;-87
2024/01/10 02:30:08;;;;;;;10.75;4.38;;;;;;;-3.02;58.27;102932.56;5016766;28;20129;-88
2024/01/10 02:32:34;;;;;;;6.72;3.90;;;;;;;-2.95;58.53;102935.00;5015911;28;20504;-87
2024/01/10 02:35:00;;;;;;;8.05;4.40;;;;;;;-3.06;57.77;102927.84;5016227;28;20180;-87
2024/01/10 02:37:26;;;;;;;7.38;4.00;;;;;;;-2.93;58.17;102956.72;5032619;28;20120;-87
2024/01/10 02:39:51;;;;;;;7.32;3.50;;;;;;;-3.11;57.99;102923.91;5032346;28;20470;-87
2024/01/10 02:42:17;;;;;;;7.15;4.00;;;;;;;-3.19;58.48;102912.78;5015952;28;20040;-86
2024/01/10 02:44:43;;;;;;;8.50;4.10;;;;;;;-3.15;59.49;102926.94;5016106;28;20044;-87
2024/01/10 02:47:10;;;;;;;7.40;4.32;;;;;;;-3.13;58.33;102935.75;4999604;28;20386;-87
2024/01/10 02:49:35;;;;;;;9.45;4.18;;;;;;;-3.23;59.13;102923.59;5034786;28;20108;-86
2024/01/10 02:52:01;;;;;;;12.02;4.47;;;;;;;-3.21;58.42;102934.06;5020048;28;20119;-88
2024/01/10 02:54:27;;;;;;;7.28;4.13;;;;;;;-3.38;58.85;102899.72;5020260;28;20045;-87
2024/01/10 02:56:52;;;;;;;9.57;4.38;;;;;;;-3.28;59.39;102928.31;5003102;28;20037;-87
2024/01/10 02:59:17;;;;;;;10.00;4.70;;;;;;;-3.31;59.17;102924.50;5036660;28;20367;-87
2024/01/10 03:01:43;;;;;;;8.77;4.40;;;;;;;-3.31;59.70;102924.50;5019483;28;20033;-87
2024/01/10 03:04:09;;;;;;;8.32;3.88;;;;;;;-3.37;60.25;102921.31;5035845;28;20030;-87
2024/01/10 03:06:35;;;;;;;7.80;3.95;;;;;;;-3.33;59.37;102923.44;5035780;28;20036;-87
2024/01/10 03:09:00;;;;;;;11.48;4.20;;;;;;;-3.36;59.85;102918.88;5035733;28;20048;-87
2024/01/10 03:11:26;;;;;;;8.57;4.65;;;;;;;-3.47;60.48;102887.53;5035720;28;20029;-87
2024/01/10 03:14:01;;;;;;;9.45;4.25;;;;;;;-3.52;59.78;102887.06;5019208;28;20480;-87
2024/01/10 03:16:27;;;;;;;8.50;4.32;;;;;;;-3.43;60.33;102895.75;5035964;28;20037;-87
2024/01/10 03:18:52;;;;;;;9.15;4.30;;;;;;;-3.29;59.98;102918.72;5019374;28;20508;-87
2024/01/10 03:21:24;;;;;;;10.75;4.72;;;;;;;-3.19;60.56;102917.06;5020024;28;20063;-88
2024/01/10 03:23:50;;;;;;;10.43;4.68;;;;;;;-3.21;60.32;102901.41;5036579;28;20489;-88
2024/01/10 03:26:15;;;;;;;11.32;4.63;;;;;;;-3.27;60.32;102906.84;5037029;28;20045;-87
2024/01/10 03:28:40;;;;;;;9.05;4.53;;;;;;;-3.24;60.14;102895.91;5032066;28;20053;-88
2024/01/10 03:31:06;;;;;;;8.48;4.47;;;;;;;-3.24;60.17;102914.00;5003168;28;20431;-88
2024/01/10 03:33:32;;;;;;;11.75;4.55;;;;;;;-3.33;60.77;102895.91;5003950;28;20544;-88
2024/01/10 03:35:57;;;;;;;10.10;4.50;;;;;;;-3.27;60.76;102893.00;5002848;28;20034;-88
2024/01/10 03:38:26;;;;;;;8.85;4.43;;;;;;;-3.17;60.99;102907.75;5037022;28;20171;-88
2024/01/10 03:40:51;;;;;;;10.60;4.22;;;;;;;-3.32;60.71;102871.88;5020112;28;20033;-87
2024/01/10 03:43:17;;;;;;;10.38;4.22;;;;;;;-3.15;60.47;102907.16;4987178;28;20509;-87
2024/01/10 03:45:42;;;;;;;10.27;4.30;;;;;;;-3.13;60.55;102903.03;5004236;28;20060;-87
2024/01/10 03:48:08;;;;;;;12.98;4.63;;;;;;;-3.23;60.68;102883.91;5031334;28;20049;-87
2024/01/10 03:50:33;;;;;;;8.00;4.28;;;;;;;-3.30;60.13;102877.19;5010481;28;20041;-88
2024/01/10 03:52:59;;;;;;;8.48;4.35;;;;;;;-3.31;60.61;102886.63;5006284;28;20029;-87
2024/01/10 03:55:24;;;;;;;8.65;4.60;;;;;;;-3.44;61.03;102852.56;5022963;28;20033;-86
2024/01/10 03:57:49;;;;;;;7.80;4.38;;;;;;;-3.39;60.92;102878.88;5021182;28;20036;-87
2024/01/10 04:00:18;;;;;;;9.98;4.88;;;;;;;-3.51;61.65;102870.84;5004331;28;20034;-87
2024/01/10 04:02:43;;;;;;;10.07;4.63;;;;;;;-3.50;61.99;102880.41;5002618;28;20072;-87
2024/01/10 04:05:11;;;;;;;7.75;4.18;;;;;;;-3.55;61.73;102881.63;5002925;28;20041;-87
2024/01/10 04:07:39;;;;;;;7.85;4.50;;;;;;;-3.53;62.07;102880.09;5019383;28;20037;-87
2024/01/10 04:10:07;;;;;;;9.77;4.53;;;;;;;-3.55;62.11;102873.88;5003079;28;20037;-87
2024/01/10 04:12:32;;;;;;;9.02;4.50;;;;;;;-3.80;62.18;102844.66;5002967;28;20079;-87
2024/01/10 04:14:58;;;;;;;7.97;4.30;;;;;;;-3.82;62.60;102838.41;4985967;28;20030;-87
2024/01/10 04:17:23;;;;;;;9.43;4.30;;;;;;;-3.66;62.77;102848.63;5018499;28;20477;-87
2024/01/10 04:19:49;;;;;;;9.32;4.60;;;;;;;-3.85;63.16;102813.22;5018900;28;20061;-87
2024/01/10 04:22:14;;;;;;;8.02;4.53;;;;;;;-3.58;63.14;102861.56;5019800;28;20097;-87
2024/01/10 04:24:39;;;;;;;9.15;4.75;;;;;;;-3.49;62.41;102864.13;4988162;28;20065;-86
2024/01/10 04:27:05;;;;;;;9.00;4.50;;;;;;;-3.54;62.86;102868.84;5038031;28;20044;-87
2024/01/10 04:29:30;;;;;;;8.80;4.18;;;;;;;-3.46;63.16;102868.72;5038717;28;20155;-87
2024/01/10 04:31:56;;;;;;;8.50;4.55;;;;;;;-3.44;63.02;102854.25;5019974;28;20467;-87
2024/01/10 04:34:22;;;;;;;9.30;4.60;;;;;;;-3.46;62.62;102872.19;5001583;28;20187;-87
2024/01/10 04:36:48;;;;;;;8.48;4.25;;;;;;;-3.53;62.74;102865.50;5001065;28;20038;-87
2024/01/10 04:39:13;;;;;;;8.38;4.40;;;;;;;-3.48;62.52;102876.28;5001476;28;20039;-87
2024/01/10 04:41:39;;;;;;;8.23;4.05;;;;;;;-3.53;63.25;102860.31;5001397;28;20059;-87
2024/01/10 04:44:05;;;;;;;8.88;4.50;;;;;;;-3.54;62.98;102842.09;5001110;28;20029;-87
2024/01/10 04:46:30;;;;;;;6.72;3.90;;;;;;;-3.40;62.56;102867.63;5017348;28;20026;-87
2024/01/10 04:48:55;;;;;;;10.90;4.95;;;;;;;-3.44;62.09;102872.34;4985067;28;20141;-87
2024/01/10 04:51:21;;;;;;;9.15;4.28;;;;;;;-3.63;62.53;102844.69;5017723;28;20033;-87
2024/01/10 04:53:46;;;;;;;6.53;3.72;;;;;;;-3.66;62.45;102831.44;4985325;28;20045;-87
2024/01/10 04:56:12;;;;;;;7.93;4.35;;;;;;;-3.63;62.72;102838.59;5001719;28;20084;-87
2024/01/10 04:58:37;;;;;;;9.02;4.43;;;;;;;-3.53;62.89;102864.59;5017268;28;20060;-87
2024/01/10 05:01:03;;;;;;;8.63;4.20;;;;;;;-3.63;62.01;102841.19;5000417;28;20088;-87
2024/01/10 05:03:28;;;;;;;8.85;4.20;;;;;;;-3.57;62.57;102854.72;5017115;28;20037;-88
2024/01/10 05:05:53;;;;;;;9.43;5.20;;;;;;;-3.62;63.18;102858.50;5000566;28;20061;-88
2024/01/10 05:08:20;;;;;;;8.45;4.25;;;;;;;-3.69;62.88;102856.06;5016887;28;20521;-87
2024/01/10 05:10:46;;;;;;;8.27;4.22;;;;;;;-3.72;63.30;102859.28;5000941;28;20036;-87
2024/01/10 05:13:12;;;;;;;9.20;4.18;;;;;;;-3.69;62.75;102861.22;5000082;28;20041;-87
2024/01/10 05:15:37;;;;;;;8.38;4.13;;;;;;;-3.69;63.33;102874.16;5016971;28;20082;-88
2024/01/10 05:18:03;;;;;;;9.25;4.60;;;;;;;-3.79;63.02;102864.56;4984075;28;20037;-86
2024/01/10 05:20:28;;;;;;;9.38;4.28;;;;;;;-3.96;64.04;102837.03;5017350;28;20030;-87
2024/01/10 05:22:58;;;;;;;7.82;4.07;;;;;;;-3.96;64.94;102859.38;5002126;28;20029;-86
2024/01/10 05:25:23;;;;;;;8.50;4.10;;;;;;;-4.17;64.43;102835.78;5037382;28;20097;-87
2024/01/10 05:27:49;;;;;;;8.18;4.57;;;;;;;-4.25;64.77;102826.34;5039312;28;20067;-84
2024/01/10 05:30:14;;;;;;;8.05;4.43;;;;;;;-4.12;66.06;102851.72;5003762;28;20041;-87
2024/01/10 05:32:40;;;;;;;7.22;3.85;;;;;;;-4.10;65.80;102857.97;5002344;28;20083;-87
2024/01/10 05:35:06;;;;;;;8.30;4.25;;;;;;;-4.08;65.80;102852.19;5017674;28;20040;-87
2024/01/10 05:37:32;;;;;;;10.40;4.47;;;;;;;-4.05;66.50;102861.94;5016319;28;20131;-88
2024/01/10 05:39:58;;;;;;;7.47;4.10;;;;;;;-4.07;66.03;102848.88;5017539;28;20057;-86
2024/01/10 05:42:24;;;;;;;9.05;4.40;;;;;;;-4.21;65.51;102833.66;5016735;28;20052;-87
2024/01/10 05:44:49;;;;;;;9.35;4.45;;;;;;;-4.13;66.13;102843.09;5034330;28;20083;-87
2024/01/10 05:47:15;;;;;;;9.75;4.60;;;;;;;-4.08;66.94;102834.13;5016956;28;20033;-87
2024/01/10 05:49:42;;;;;;;6.65;3.92;;;;;;;-4.05;65.73;102833.53;5017019;28;20061;-87
2024/01/10 05:52:07;;;;;;;8.75;4.18;;;;;;;-3.95;65.92;102854.34;5016408;28;20036;-86
2024/01/10 05:54:33;;;;;;;9.15;4.30;;;;;;;-3.81;66.83;102867.00;5000119;28;20037;-89
2024/01/10 05:57:00;;;;;;;7.97;4.10;;;;;;;-3.89;65.96;102867.91;5016017;28;20053;-86
2024/01/10 05:59:26;;;;;;;9.13;4.22;;;;;;;-3.96;66.08;102867.13;4984208;28;20120;-87
2024/01/10 06:01:52;;;;;;;11.02;6.00;;;;;;;-4.19;66.44;102841.56;4999780;28;20064;-87
2024/01/10 06:04:17;;;;;;;7.68;4.57;;;;;;;-4.13;66.26;102844.75;4984138;28;20041;-87
2024/01/10 06:06:42;;;;;;;7.43;4.07;;;;;;;-4.04;66.10;102856.00;5016205;28;20057;-87
2024/01/10 06:09:11;;;;;;;8.75;4.60;;;;;;;-4.09;66.97;102844.31;5016194;28;20025;-87
2024/01/10 06:11:41;;;;;;;7.18;4.22;;;;;;;-4.05;66.00;102857.69;5016216;28;20128;-87
2024/01/10 06:14:07;;;;;;;8.20;4.63;;;;;;;-4.07;66.14;102855.69;5000272;28;20044;-88
2024/01/10 06:16:32;;;;;;;9.57;4.57;;;;;;;-4.21;66.83;102853.38;4983836;28;20025;-87
2024/01/10 06:18:57;;;;;;;9.52;4.70;;;;;;;-4.42;67.72;102845.25;4999705;28;20041;-87
2024/01/10 06:21:23;;;;;;;8.20;4.15;;;;;;;-4.28;68.26;102854.44;5016634;28;20045;-87
2024/01/10 06:23:48;;;;;;;8.18;4.40;;;;;;;-4.26;68.06;102857.16;5000407;28;20029;-87
2024/01/10 06:26:14;;;;;;;8.57;4.40;;;;;;;-4.26;67.97;102854.59;5022902;28;20123;-86
2024/01/10 06:28:39;;;;;;;7.68;4.38;;;;;;;-4.46;68.06;102821.56;5040244;28;20057;-87
2024/01/10 06:31:06;;;;;;;7.78;4.18;;;;;;;-4.42;67.79;102853.00;5022202;28;20053;-87
2024/01/10 06:33:31;;;;;;;7.50;4.43;;;;;;;-4.50;68.94;102830.66;4989543;28;20041;-87
2024/01/10 06:35:57;;;;;;;9.40;4.97;;;;;;;-4.44;68.64;102836.47;5022484;28;20069;-87
2024/01/10 06:38:23;;;;;;;8.27;4.30;;;;;;;-4.41;68.81;102846.16;5006976;28;20036;-87
2024/01/10 06:40:49;;;;;;;9.10;4.63;;;;;;;-4.44;68.83;102841.63;5022871;28;20469;-87
2024/01/10 06:43:15;;;;;;;8.10;4.35;;;;;;;-4.41;68.93;102841.00;5022749;28;20116;-87
2024/01/10 06:45:42;;;;;;;12.05;5.20;;;;;;;-4.27;69.08;102851.09;5040167;28;20033;-88
2024/01/10 06:48:08;;;;;;;9.93;4.85;;;;;;;-4.41;68.42;102826.47;5006064;28;20055;-87
2024/01/10 06:50:33;;;;;;;9.95;4.80;;;;;;;-4.42;68.06;102837.53;5006216;28;20462;-87
2024/01/10 06:52:59;;;;;;;7.97;4.45;;;;;;;-4.41;68.16;102841.94;5022605;28;20044;-87
2024/01/10 06:55:25;;;;;;;8.98;4.57;;;;;;;-4.32;68.06;102860.03;4989673;28;20069;-87
2024/01/10 06:57:52;;;;;;;8.85;4.32;;;;;;;-4.36;69.42;102850.16;5022360;28;20037;-88
2024/01/10 07:00:20;;;;;;;10.15;4.93;;;;;;;-4.39;68.41;102858.50;5039929;28;20037;-88
2024/01/10 07:02:45;;;;;;;7.50;4.30;;;;;;;-4.36;69.81;102860.50;5006391;28;20038;-87
2024/01/10 07:05:10;;;;;;;9.73;4.47;;;;;;;-4.55;69.34;102832.78;5024586;28;20044;-87
2024/01/10 07:07:36;;;;;;;8.18;4.57;;;;;;;-4.37;69.02;102868.97;5045528;28;20089;-86
2024/01/10 07:10:05;;;;;;;9.18;5.05;;;;;;;-4.50;68.86;102843.56;5017057;28;20044;-87
2024/01/10 07:12:31;;;;;;;9.40;4.70;;;;;;;-4.43;68.98;102864.09;5008263;28;20592;-86
2024/01/10 07:14:57;;;;;;;9.65;5.13;;;;;;;-4.53;69.43;102857.06;5022741;28;20057;-87
2024/01/10 07:17:22;;;;;;;9.82;5.43;;;;;;;-4.47;70.28;102867.09;5022188;28;20041;-87
2024/01/10 07:19:48;;;;;;;8.43;4.55;;;;;;;-4.60;69.18;102833.97;5022215;28;20112;-87
2024/01/10 07:22:14;;;;;;;8.55;5.18;;;;;;;-4.41;69.67;102865.19;5021838;28;20489;-87
2024/01/10 07:24:39;;;;;;;10.73;4.93;;;;;;;-4.53;69.54;102840.69;5006369;28;20040;-87
2024/01/10 07:27:06;;;;;;;8.77;4.72;;;;;;;-4.59;68.63;102825.47;5039739;28;20120;-87
2024/01/10 07:29:31;;;;;;;10.25;4.72;;;;;;;-4.44;69.08;102859.69;5016447;28;20046;-87
2024/01/10 07:31:57;;;;;;;11.52;5.70;;;;;;;-4.55;69.50;102848.25;5022050;28;20057;-87
2024/01/10 07:34:22;;;;;;;8.48;4.90;;;;;;;-4.57;69.63;102835.97;5038324;28;20034;-87
2024/01/10 07:36:48;;;;;;;11.38;5.10;;;;;;;-4.60;69.69;102823.66;5036000;28;20462;-88
2024/01/10 07:39:18;;;;;;;10.00;4.80;;;;;;;-4.62;69.68;102821.69;5018575;28;20068;-87
2024/01/10 07:41:44;;;;;;;10.85;5.32;;;;;;;-4.53;70.16;102851.91;5035314;28;20040;-87
2024/01/10 07:44:09;;;;;;;9.57;5.47;;;;;;;-4.52;70.66;102850.25;5018697;28;20132;-87
2024/01/10 07:46:37;;;;;;;10.82;5.70;;;;;;;-4.57;70.17;102838.53;5035549;28;20038;-87
2024/01/10 07:49:03;;;;;;;9.38;5.78;;;;;;;-4.62;71.24;102834.59;5036658;28;20065;-87
2024/01/10 07:51:29;;;;;;;11.50;5.93;;;;;;;-4.77;70.16;102797.78;5035111;28;20071;-88
2024/01/10 07:53:55;;;;;;;11.25;5.40;;;;;;;-4.58;69.78;102831.56;5035012;28;20473;-88
2024/01/10 07:56:20;;;;;;;11.98;5.43;;;;;;;-4.59;70.73;102842.63;5036093;28;20381;-88
2024/01/10 07:58:46;;;;;;;10.50;5.20;;;;;;;-4.62;70.77;102848.41;5018636;28;20496;-86
2024/01/10 08:01:11;;;;;;;12.63;5.40;;;;;;;-4.61;70.00;102842.47;5035714;28;20037;-87
2024/01/10 08:03:36;;;;;;;11.77;4.78;;;;;;;-4.59;70.79;102845.19;5036103;28;20471;-87
2024/01/10 08:06:03;;;;;;;10.35;4.97;;;;;;;-4.41;70.97;102852.28;5002476;28;20033;-86
2024/01/10 08:08:28;;;;;;;12.10;5.65;;;;;;;-4.33;70.52;102848.78;5035254;28;20132;-86
2024/01/10 08:10:55;;;;;;;9.57;5.28;;;;;;;-4.17;70.21;102851.28;5018159;28;20106;-87
2024/01/10 08:13:20;;;;;;;10.48;5.35;;;;;;;-4.04;69.09;102849.19;5034692;28;20033;-86
2024/01/10 08:15:46;;;;;;;10.35;5.25;;;;;;;-3.82;69.92;102854.81;5018108;28;20394;-86
2024/01/10 08:18:11;;;;;;;12.38;5.70;;;;;;;-3.59;68.38;102857.16;5018204;28;20048;-87
2024/01/10 08:20:37;;;;;;;10.10;5.32;;;;;;;-3.37;68.66;102851.53;5034587;28;20503;-88
2024/01/10 08:23:03;;;;;;;9.75;5.38;;;;;;;-3.02;67.35;102862.72;5034910;28;20029;-86
2024/01/10 08:25:28;;;;;;;9.80;4.82;;;;;;;-2.73;66.03;102870.75;5017883;28;20124;-87
2024/01/10 08:27:55;;;;;;;11.63;6.30;;;;;;;-2.62;65.80;102843.28;5035085;28;20033;-86
2024/01/10 08:30:21;;;;;;;13.93;5.85;;;;;;;-2.37;65.24;102826.72;5037785;28;20049;-87
2024/01/10 08:32:47;;;;;;;11.57;5.05;;;;;;;-2.03;65.27;102863.56;5021355;28;20051;-87
2024/01/10 08:35:12;;;;;;;9.30;5.20;;;;;;;-1.96;63.16;102829.72;5037432;28;20132;-87
2024/01/10 08:37:38;;;;;;;11.98;6.10;;;;;;;-1.79;62.68;102818.31;5020649;28;20044;-87
2024/01/10 08:40:09;;;;;;;13.40;6.22;;;;;;;-1.56;62.06;102826.50;5020099;28;20033;-87
2024/01/10 08:42:35;;;;;;;9.75;5.20;;;;;;;-1.20;59.88;102847.84;5022309;28;20041;-87
2024/01/10 08:45:00;;;;;;;10.65;5.70;;;;;;;-1.04;59.08;102840.66;5064737;28;20442;-88
2024/01/10 08:47:26;;;;;;;9.32;5.57;;;;;;;-0.94;62.40;102814.78;5043096;28;20041;-86
2024/01/10 08:49:51;;;;;;;13.98;5.40;;;;;;;-0.55;59.95;102829.44;5033773;28;20025;-87
2024/01/10 08:52:17;;;;;;;10.90;5.47;;;;;;;-0.30;59.94;102811.69;5039733;28;20048;-88
2024/01/10 08:54:42;;;;;;;12.73;5.40;;;;;;;-0.10;56.93;102819.50;5038359;28;20492;-90
2024/01/10 08:57:08;;;;;;;9.10;5.47;;;;;;;-0.03;56.00;102813.16;5037926;28;20113;-89
2024/01/10 08:59:34;;;;;;;11.63;6.75;;;;;;;0.50;56.82;102860.94;5037132;28;20029;-90
2024/01/10 09:01:59;;;;;;;10.50;5.97;;;;;;;0.47;55.39;102820.00;5037365;28;20037;-91
2024/01/10 09:04:25;;;;;;;13.20;6.30;;;;;;;0.57;53.82;102826.88;5037658;28;20037;-93
2024/01/10 09:06:55;;;;;;;9.70;5.85;;;;;;;0.90;55.54;102859.03;5056101;28;20040;-93
2024/01/10 09:09:31;;;;;;;12.70;6.07;;;;;;;0.90;54.44;102820.94;5037438;28;20366;-94
2024/01/10 09:11:57;;;;;;;9.77;5.80;;;;;;;1.25;51.54;102868.03;5036646;28;20501;-93
2024/01/10 09:14:40;;;;;;;12.75;6.18;;;;;;;1.38;51.39;102875.13;5036802;28;20033;-93
2024/01/10 09:17:17;;;;;;;11.30;6.10;;;;;;;1.22;50.78;102825.22;5008289;28;20458;-92
2024/01/10 09:19:54;;;;;;;;;;;;;;;;;;;;;
2024/01/10 09:22:20;;;;;;;12.25;6.47;;;;;;;1.62;50.24;102839.69;5038946;28;20377;-94
2024/01/10 09:25:12;;;;;;;12.13;5.93;;;;;;;1.68;50.51;102828.88;5037144;28;20116;-92
2024/01/10 09:27:43;;;;;;;10.90;5.90;;;;;;;1.93;49.97;102827.38;5054720;28;20036;-92
2024/01/10 09:30:22;;;;;;;;;;;;;;;;;;;;;
2024/01/10 09:33:04;;;;;;;11.93;6.00;;;;;;;1.96;48.00;102840.63;5020176;28;20033;-93
2024/01/10 09:36:09;;;;;;;11.43;6.30;;;;;;;2.02;47.69;102821.06;5035474;28;20424;-93
2024/01/10 09:38:55;;;;;;;10.30;6.20;;;;;;;2.05;46.12;102822.19;5002849;28;20087;-93
2024/01/10 09:41:30;;;;;;;12.70;7.13;;;;;;;2.20;48.03;102818.16;5002524;28;20049;-92
2024/01/10 09:44:05;;;;;;;13.07;6.32;;;;;;;2.34;46.59;102827.00;5016918;28;20029;-93
2024/01/10 09:46:34;;;;;;;11.82;7.10;;;;;;;2.29;45.75;102820.53;5001528;28;20029;-92
2024/01/10 09:48:59;;;;;;;12.55;6.97;;;;;;;2.66;46.58;102865.09;5034531;28;20033;-90
2024/01/10 09:51:31;;;;;;;11.50;6.40;;;;;;;2.70;45.63;102838.41;5016499;28;20480;-91
2024/01/10 09:54:05;;;;;;;18.77;8.82;;;;;;;2.77;45.67;102864.16;5018301;28;20064;-90
2024/01/10 09:56:37;;;;;;;13.18;7.53;;;;;;;2.61;44.64;102843.88;5018904;28;20083;-91
2024/01/10 09:59:14;;;;;;;15.90;8.10;;;;;;;2.57;45.51;102828.75;5016900;28;20025;-90
2024/01/10 10:01:45;;;;;;;12.15;6.38;;;;;;;2.80;45.10;102855.66;5017748;28;20029;-90
2024/01/10 10:04:22;;;;;;;;;;;;;;;;;;;;;
2024/01/10 10:06:57;;;;;;;14.23;7.07;;;;;;;2.79;44.01;102856.47;5035486;28;20033;-85
2024/01/10 10:09:25;;;;;;;16.15;7.05;;;;;;;2.97;44.42;102878.72;5017526;28;20121;-87
2024/01/10 10:11:59;;;;;;;14.10;7.28;;;;;;;2.93;44.32;102846.22;5016491;28;20036;-86
2024/01/10 10:14:36;;;;;;;13.88;7.10;;;;;;;3.19;44.26;102837.69;5016525;28;20133;-87
2024/01/10 10:17:20;;;;;;;15.35;7.00;;;;;;;3.41;43.72;102867.97;5016296;28;20456;-86
2024/01/10 10:19:46;;;;;;;15.40;7.15;;;;;;;3.22;43.43;102842.25;5034162;28;20116;-89
2024/01/10 10:22:13;;;;;;;16.20;7.25;;;;;;;3.25;43.78;102853.84;5048165;28;20060;-89
2024/01/10 10:24:49;;;;;;;;;;;;;;;;;;;;;
2024/01/10 10:27:16;;;;;;;15.15;7.80;;;;;;;2.89;43.39;102812.88;5025734;28;20116;-87
2024/01/10 10:29:49;;;;;;;12.68;7.50;;;;;;;3.08;43.08;102822.94;5034168;28;20080;-88
2024/01/10 10:32:18;;;;;;;13.35;7.22;;;;;;;3.45;42.38;102873.53;5037862;28;20037;-88
2024/01/10 10:34:45;;;;;;;18.83;7.72;;;;;;;3.16;43.16;102824.41;5033821;28;20057;-88
2024/01/10 10:37:16;;;;;;;12.98;7.55;;;;;;;3.29;43.18;102807.00;5034553;28;20025;-88
2024/01/10 10:39:44;;;;;;;15.27;7.22;;;;;;;3.80;43.85;102816.72;5034583;28;20030;-88
2024/01/10 10:42:10;;;;;;;17.08;8.93;;;;;;;3.86;41.03;102817.16;5031988;28;20029;-90
2024/01/10 10:44:41;;;;;;;15.18;7.40;;;;;;;4.10;41.16;102857.16;5033227;28;20034;-87
2024/01/10 10:47:24;;;;;;;14.35;7.35;;;;;;;3.88;40.44;102818.16;5032469;28;20052;-88
2024/01/10 10:49:54;;;;;;;;;;;;;;;4.20;42.83;102855.31;5033882;28;20454;-87
2024/01/10 10:52:25;;;;;;;13.23;7.63;;;;;;;4.33;42.60;102809.03;5033729;28;19916;-89
2024/01/10 10:54:55;;;;;;;13.77;7.28;;;;;;;4.75;40.59;102813.59;5016105;28;20033;-87
2024/01/10 10:57:26;;;;;;;14.50;7.82;;;;;;;5.03;41.56;102819.84;5033739;28;20026;-89
2024/01/10 11:00:02;;;;;;;14.55;7.85;;;;;;;5.34;39.50;102832.28;5033181;28;20130;-87
2024/01/10 11:02:30;;;;;;;15.63;8.10;;;;;;;5.33;38.97;102809.50;5044196;28;20104;-88
2024/01/10 11:05:12;;;;;;;;;;;;;;;;;;;;;
2024/01/10 11:07:51;;;;;;;10.55;6.75;;;;;;;5.65;38.06;102844.72;5034227;28;20461;-88
2024/01/10 11:10:37;;;;;;;14.75;7.60;;;;;;;5.98;39.33;102846.84;5033526;28;20045;-88
2024/01/10 11:13:21;;;;;;;18.52;8.77;;;;;;;6.25;39.40;102845.03;5036049;28;20068;-88
2024/01/10 11:16:03;;;;;;;13.73;7.28;;;;;;;6.39;38.50;102848.47;5035428;28;20039;-88
2024/01/10 11:18:47;;;;;;;13.52;7.55;;;;;;;6.50;38.83;102841.22;5036887;28;20112;-88
2024/01/10 11:21:27;;;;;;;15.57;8.57;;;;;;;6.45;36.99;102826.91;5036669;28;20029;-88
2024/01/10 11:23:56;;;;;;;14.50;8.27;;;;;;;6.53;35.53;102842.31;5036384;28;20428;-88
2024/01/10 11:26:21;;;;;;;18.98;7.97;;;;;;;6.52;36.67;102829.09;5037167;28;20458;-89
2024/01/10 11:28:48;;;;;;;14.15;7.60;;;;;;;6.77;37.56;102827.09;5035209;28;20072;-89
2024/01/10 11:31:17;;;;;;;16.33;8.10;;;;;;;6.87;35.76;102823.25;5036620;28;20549;-89